Etretat — FIDP — position and weather

sailwx.info

Track history (hours):
 
Tides and Currents Weather Stations Pressure Air Temp Water Temp Dewpoint Dewpoint Depression Visibility Wind Speed Wind Dir Waves Ship Positions

Etretat

Last reported at 2018-Feb-19 04:00 UTC. Time now 2018-Feb-19 04:13 UTC.
Position N 49°50' W 000°15'.

Length 187 m; draft 6 m.

Type: Ship. MMSI: 228022900.

Date/timePositionNaut miles runAvg speedWind from/ knotsBaromVisibWave heightAir tempDewpointWater temp
2018-Feb-19 04:00N 49°50' W 000°15'4 7.7
2018-Feb-19 03:30N 49°53' W 000°18'815.1
2018-Feb-19 03:00N 49°60' W 000°23'3717.2
2018-Feb-19 00:51N 50°33' W 000°50'515.9
2018-Feb-19 00:31N 50°38' W 000°54'714.9
2018-Feb-19 00:00N 50°43' W 001°01'510.7
2018-Feb-18 23:30N 50°48' W 001°07'1 2.5
2018-Feb-18 23:00N 50°49' W 001°06'0 0.0
2018-Feb-18 22:30N 50°49' W 001°06'0 0.0
2018-Feb-18 22:01N 50°49' W 001°06'0 0.0
2018-Feb-18 21:30N 50°49' W 001°06'1 1.5
2018-Feb-18 21:00N 50°48' W 001°07'611.6
2018-Feb-18 20:31N 50°44' W 001°02'918.5
2018-Feb-18 20:01N 50°36' W 000°53'1119.7
2018-Feb-18 19:26N 50°26' W 000°45'1420.2
2018-Feb-18 18:44N 50°14' W 000°33'520.2
2018-Feb-18 18:31N 50°10' W 000°30'1019.9
2018-Feb-18 18:01N 50°01' W 000°24'1020.5
2018-Feb-18 17:31N 49°52' W 000°17'1020.8
2018-Feb-18 17:01N 49°43' W 000°09'1020.8
2018-Feb-18 16:30N 49°33' W 000°01'713.7
2018-Feb-18 16:00N 49°29' E 000°07'0 0.0
2018-Feb-18 15:30N 49°29' E 000°07'0 0.0
2018-Feb-18 15:00N 49°29' E 000°07'0 0.0
2018-Feb-18 14:30N 49°29' E 000°07'0 0.0
2018-Feb-18 14:00N 49°29' E 000°07'0 0.0
2018-Feb-18 13:30N 49°29' E 000°07'0 0.0
2018-Feb-18 13:00N 49°29' E 000°07'0 0.0
2018-Feb-18 12:30N 49°29' E 000°07'0 0.0
2018-Feb-18 12:00N 49°29' E 000°07'0 0.0
2018-Feb-18 11:30N 49°29' E 000°07'0 0.0
2018-Feb-18 11:00N 49°29' E 000°07'0 0.0
2018-Feb-18 10:30N 49°29' E 000°07'0 0.0
2018-Feb-18 10:00N 49°29' E 000°07'0 0.0
2018-Feb-18 09:30N 49°29' E 000°07'0 0.0
2018-Feb-18 09:00N 49°29' E 000°07'0 0.0
2018-Feb-18 08:30N 49°29' E 000°07'0 0.0
2018-Feb-18 08:00N 49°29' E 000°07'0 0.0
2018-Feb-18 07:30N 49°29' E 000°07'2 4.0
2018-Feb-18 07:01N 49°29' E 000°04'815.1
2018-Feb-18 06:31N 49°36' W 000°02'3 6.6
2018-Feb-18 06:00N 49°39' W 000°04'0 0.2
2018-Feb-18 05:30N 49°39' W 000°04'0 0.6
2018-Feb-18 05:00N 49°39' W 000°04'714.3
2018-Feb-18 04:30N 49°45' W 000°10'815.3
2018-Feb-18 04:00N 49°52' W 000°16'815.1
2018-Feb-18 03:31N 49°58' W 000°22'815.0
2018-Feb-18 03:00N 50°05' W 000°28'815.3
2018-Feb-18 02:30N 50°12' W 000°33'1015.4
2018-Feb-18 01:50N 50°21' W 000°40'815.9
2018-Feb-18 01:20N 50°28' W 000°47'515.3
2018-Feb-18 01:01N 50°32' W 000°51'815.3
2018-Feb-18 00:30N 50°37' W 000°59'713.1
2018-Feb-18 00:00N 50°44' W 001°03'510.9
2018-Feb-17 23:31N 50°48' W 001°07'1 1.3
2018-Feb-17 23:01N 50°49' W 001°06'0 0.0
2018-Feb-17 22:31N 50°49' W 001°06'0 0.0
2018-Feb-17 22:01N 50°49' W 001°06'0 0.2
2018-Feb-17 21:31N 50°49' W 001°06'3 6.0
2018-Feb-17 21:01N 50°46' W 001°05'816.4
2018-Feb-17 20:31N 50°40' W 000°56'918.3
2018-Feb-17 20:00N 50°32' W 000°49'1119.0
2018-Feb-17 19:27N 50°23' W 000°40'919.2
2018-Feb-17 18:59N 50°15' W 000°33'919.4
2018-Feb-17 18:31N 50°07' W 000°28'1019.6
2018-Feb-17 18:01N 49°58' W 000°22'1020.3
2018-Feb-17 17:31N 49°49' W 000°15'1020.6
2018-Feb-17 17:01N 49°40' W 000°07'1020.2
2018-Feb-17 16:31N 49°31' E 000°01'4 8.4
2018-Feb-17 16:00N 49°29' E 000°07'0 0.0
2018-Feb-17 15:30N 49°29' E 000°07'0 0.0
2018-Feb-17 15:00N 49°29' E 000°07'0 0.0
2018-Feb-17 14:30N 49°29' E 000°07'0 0.0
2018-Feb-17 14:00N 49°29' E 000°07'0 0.0
2018-Feb-17 13:30N 49°29' E 000°07'0 0.0
2018-Feb-17 13:00N 49°29' E 000°07'0 0.0
2018-Feb-17 12:30N 49°29' E 000°07'0 0.0
2018-Feb-17 12:00N 49°29' E 000°07'0 0.0
2018-Feb-17 11:30N 49°29' E 000°07'0 0.0
2018-Feb-17 11:00N 49°29' E 000°07'0 0.0
2018-Feb-17 10:30N 49°29' E 000°07'0 0.0
2018-Feb-17 10:00N 49°29' E 000°07'0 0.0
2018-Feb-17 09:30N 49°29' E 000°07'0 0.0
2018-Feb-17 09:00N 49°29' E 000°07'0 0.0
2018-Feb-17 08:30N 49°29' E 000°07'0 0.0
2018-Feb-17 08:00N 49°29' E 000°07'0 0.0
2018-Feb-17 07:30N 49°29' E 000°07'2 3.2
2018-Feb-17 07:00N 49°29' E 000°04'816.5
2018-Feb-17 06:30N 49°36' W 000°04'5 9.1
2018-Feb-17 06:00N 49°40' W 000°07'1 1.2
2018-Feb-17 05:30N 49°40' W 000°06'0 0.7
2018-Feb-17 05:00N 49°41' W 000°06'611.9
2018-Feb-17 04:30N 49°46' W 000°10'815.3
2018-Feb-17 04:00N 49°52' W 000°16'815.1
2018-Feb-17 03:30N 49°59' W 000°22'714.8
2018-Feb-17 03:00N 50°06' W 000°27'714.1
2018-Feb-17 02:30N 50°10' W 000°36'2114.3
2018-Feb-17 01:02N 50°30' W 000°48'115.9
2018-Feb-17 00:59N 50°30' W 000°48'715.3
2018-Feb-17 00:30N 50°37' W 000°53'815.7
2018-Feb-17 00:01N 50°43' W 001°01'612.2
2018-Feb-16 23:30N 50°48' W 001°07'1 2.2
2018-Feb-16 23:00N 50°49' W 001°06'0 0.0
2018-Feb-16 22:30N 50°49' W 001°06'0 0.0
2018-Feb-16 22:01N 50°49' W 001°06'0 0.0
2018-Feb-16 21:30N 50°49' W 001°06'0 0.0
2018-Feb-16 21:00N 50°49' W 001°06'0 0.0
2018-Feb-16 20:30N 50°49' W 001°06'0 0.0
2018-Feb-16 20:00N 50°49' W 001°06'0 0.0
2018-Feb-16 19:31N 50°49' W 001°06'0 0.0
2018-Feb-16 19:00N 50°49' W 001°06'0 0.0
2018-Feb-16 18:30N 50°49' W 001°06'0 0.0
2018-Feb-16 18:00N 50°49' W 001°06'0 0.0
2018-Feb-16 17:30N 50°49' W 001°06'0 0.0
2018-Feb-16 17:00N 50°49' W 001°06'0 0.0
2018-Feb-16 16:30N 50°49' W 001°06'0 0.0
2018-Feb-16 16:00N 50°49' W 001°06'0 0.0
2018-Feb-16 15:30N 50°49' W 001°06'0 0.0
2018-Feb-16 15:00N 50°49' W 001°06'0 0.0
2018-Feb-16 14:30N 50°49' W 001°06'0 0.0
2018-Feb-16 14:00N 50°49' W 001°06'0 0.0
2018-Feb-16 13:30N 50°49' W 001°06'0 0.0
2018-Feb-16 13:00N 50°49' W 001°06'0 0.0
2018-Feb-16 12:30N 50°49' W 001°06'0 0.0
2018-Feb-16 12:01N 50°49' W 001°06'0 0.0
2018-Feb-16 11:30N 50°49' W 001°06'0 0.0
2018-Feb-16 11:00N 50°49' W 001°06'0 0.0
2018-Feb-16 10:30N 50°49' W 001°06'0 0.0
2018-Feb-16 10:00N 50°49' W 001°06'0 0.0
2018-Feb-16 09:30N 50°49' W 001°06'0 0.0
2018-Feb-16 09:00N 50°49' W 001°06'0 0.0
2018-Feb-16 08:30N 50°49' W 001°06'0 0.0
2018-Feb-16 08:00N 50°49' W 001°06'0 0.0
2018-Feb-16 07:30N 50°49' W 001°06'1 1.1
2018-Feb-16 07:01N 50°49' W 001°07'612.4
2018-Feb-16 06:31N 50°43' W 001°01'815.3
2018-Feb-16 06:01N 50°36' W 000°57'815.3
2018-Feb-16 05:30N 50°29' W 000°52'1815.8
2018-Feb-16 04:23N 50°15' W 000°35'716.9
2018-Feb-16 03:58N 50°10' W 000°28'716.0
2018-Feb-16 03:31N 50°03' W 000°22'815.5
2018-Feb-16 03:00N 49°56' W 000°19'815.5
2018-Feb-16 02:31N 49°49' W 000°14'815.0
2018-Feb-16 02:00N 49°42' W 000°10'0 0.5
2018-Feb-16 01:30N 49°42' W 000°10'0 0.6
2018-Feb-16 01:00N 49°42' W 000°09'0 0.6
2018-Feb-16 00:30N 49°42' W 000°09'0 0.7
2018-Feb-16 00:00N 49°43' W 000°10'0 0.9
2018-Feb-15 23:30N 49°43' W 000°10'1 1.4
2018-Feb-15 23:00N 49°42' W 000°11'3 5.8
2018-Feb-15 22:30N 49°40' W 000°09'612.9
2018-Feb-15 22:00N 49°35' W 000°03'713.4
2018-Feb-15 21:31N 49°30' E 000°03'2 4.4
2018-Feb-15 21:00N 49°29' E 000°07'0 0.0
2018-Feb-15 20:30N 49°29' E 000°07'0 0.0
2018-Feb-15 20:00N 49°29' E 000°07'0 0.0
2018-Feb-15 19:30N 49°29' E 000°07'0 0.0
2018-Feb-15 19:00N 49°29' E 000°07'0 0.0
2018-Feb-15 18:30N 49°29' E 000°07'0 0.0
2018-Feb-15 18:00N 49°29' E 000°07'0 0.0
2018-Feb-15 17:30N 49°29' E 000°07'0 0.0
2018-Feb-15 17:00N 49°29' E 000°07'0 0.0
2018-Feb-15 16:30N 49°29' E 000°07'0 0.0
2018-Feb-15 16:00N 49°29' E 000°07'0 0.0
2018-Feb-15 15:30N 49°29' E 000°07'0 0.0
2018-Feb-15 15:00N 49°29' E 000°07'0 0.0
2018-Feb-15 14:30N 49°29' E 000°07'0 0.0
2018-Feb-15 14:00N 49°29' E 000°07'0 0.0
2018-Feb-15 13:31N 49°29' E 000°07'0 0.0
2018-Feb-15 13:00N 49°29' E 000°07'0 0.0
2018-Feb-15 12:30N 49°29' E 000°07'0 0.0
2018-Feb-15 12:00N 49°29' E 000°07'0 0.0
2018-Feb-15 11:30N 49°29' E 000°07'0 0.0
2018-Feb-15 11:00N 49°29' E 000°07'0 0.0
2018-Feb-15 10:30N 49°29' E 000°07'0 0.0
2018-Feb-15 10:00N 49°29' E 000°07'0 0.0
2018-Feb-15 09:30N 49°29' E 000°07'0 0.0
2018-Feb-15 09:00N 49°29' E 000°07'0 0.0
2018-Feb-15 08:30N 49°29' E 000°07'0 0.0
2018-Feb-15 08:00N 49°29' E 000°07'0 0.0
2018-Feb-15 07:30N 49°29' E 000°07'3 7.0
2018-Feb-15 07:00N 49°30' E 000°02'612.7
2018-Feb-15 06:31N 49°36' W 000°02'612.2
2018-Feb-15 06:00N 49°40' W 000°08'612.8
2018-Feb-15 05:30N 49°47' W 000°11'713.1
2018-Feb-15 05:00N 49°52' W 000°17'713.2
2018-Feb-15 04:30N 49°58' W 000°22'713.7
2018-Feb-15 04:00N 50°04' W 000°27'611.2
2018-Feb-15 03:30N 50°07' W 000°34'1913.4
2018-Feb-15 02:06N 50°25' W 000°41'413.4
2018-Feb-15 01:46N 50°29' W 000°46'413.5
2018-Feb-15 01:30N 50°32' W 000°49'713.4
2018-Feb-15 01:00N 50°37' W 000°54'713.4
2018-Feb-15 00:30N 50°43' W 001°00'611.7
2018-Feb-15 00:01N 50°47' W 001°06'2 3.1
2018-Feb-14 23:31N 50°49' W 001°06'0 0.0
2018-Feb-14 23:01N 50°49' W 001°06'0 0.0
2018-Feb-14 22:31N 50°49' W 001°06'0 0.0
2018-Feb-14 22:01N 50°49' W 001°06'0 0.2
2018-Feb-14 21:30N 50°49' W 001°06'4 7.4
2018-Feb-14 21:01N 50°45' W 001°05'714.4
2018-Feb-14 20:31N 50°40' W 000°57'2819.2
2018-Feb-14 19:01N 50°15' W 000°35'219.0
2018-Feb-14 18:55N 50°14' W 000°34'918.9
2018-Feb-14 18:27N 50°06' W 000°26'919.1
2018-Feb-14 18:00N 49°58' W 000°21'1019.3
2018-Feb-14 17:30N 49°50' W 000°14'1019.5
2018-Feb-14 17:00N 49°41' W 000°07'1020.0
2018-Feb-14 16:30N 49°32' W 000°00'511.0
2018-Feb-14 16:01N 49°29' E 000°07'0 0.0
2018-Feb-14 15:30N 49°29' E 000°07'0 0.0
2018-Feb-14 15:00N 49°29' E 000°07'0 0.0
2018-Feb-14 14:30N 49°29' E 000°07'0 0.0
2018-Feb-14 14:00N 49°29' E 000°07'0 0.0
2018-Feb-14 13:30N 49°29' E 000°07'0 0.0
2018-Feb-14 13:00N 49°29' E 000°07'0 0.0
2018-Feb-14 12:30N 49°29' E 000°07'0 0.0
2018-Feb-14 12:00N 49°29' E 000°07'0 0.0
2018-Feb-14 11:30N 49°29' E 000°07'0 0.0
2018-Feb-14 11:00N 49°29' E 000°07'0 0.0
2018-Feb-14 10:30N 49°29' E 000°07'0 0.0
2018-Feb-14 10:00N 49°29' E 000°07'0 0.0
2018-Feb-14 09:30N 49°29' E 000°07'0 0.0
2018-Feb-14 09:00N 49°29' E 000°07'0 0.0
2018-Feb-14 08:30N 49°29' E 000°07'0 0.0
2018-Feb-14 08:00N 49°29' E 000°07'0 0.0
2018-Feb-14 07:30N 49°29' E 000°07'2 4.4
2018-Feb-14 07:00N 49°30' E 000°03'714.0
2018-Feb-14 06:31N 49°35' W 000°03'612.6
2018-Feb-14 06:01N 49°41' W 000°07'612.8
2018-Feb-14 05:31N 49°47' W 000°12'713.1
2018-Feb-14 05:01N 49°52' W 000°16'713.3
2018-Feb-14 04:31N 49°58' W 000°22'713.2
2018-Feb-14 04:00N 50°04' W 000°27'2212.8
2018-Feb-14 02:19N 50°22' W 000°46'413.2
2018-Feb-14 02:00N 50°26' W 000°48'713.5
2018-Feb-14 01:30N 50°32' W 000°51'714.2
2018-Feb-14 01:00N 50°39' W 000°55'612.7
2018-Feb-14 00:30N 50°43' W 001°02'611.0
2018-Feb-14 00:00N 50°48' W 001°07'1 1.9
2018-Feb-13 23:30N 50°49' W 001°06'0 0.0
2018-Feb-13 23:00N 50°49' W 001°06'0 0.0
2018-Feb-13 22:30N 50°49' W 001°06'0 0.0
2018-Feb-13 22:00N 50°49' W 001°06'0 0.2
2018-Feb-13 21:31N 50°49' W 001°06'4 8.5
2018-Feb-13 21:01N 50°45' W 001°05'918.7
2018-Feb-13 20:31N 50°38' W 000°54'1017.4
2018-Feb-13 19:55N 50°29' W 000°46'2617.9
2018-Feb-13 18:29N 50°06' W 000°28'918.0
2018-Feb-13 18:00N 49°58' W 000°22'918.7
2018-Feb-13 17:30N 49°50' W 000°15'918.8
2018-Feb-13 17:01N 49°42' W 000°07'1019.2
2018-Feb-13 16:31N 49°33' W 000°01'713.4
2018-Feb-13 16:00N 49°29' E 000°07'0 0.0
2018-Feb-13 15:30N 49°29' E 000°07'0 0.0
2018-Feb-13 15:00N 49°29' E 000°07'0 0.0
2018-Feb-13 14:30N 49°29' E 000°07'0 0.0
2018-Feb-13 14:00N 49°29' E 000°07'0 0.0
2018-Feb-13 13:30N 49°29' E 000°07'0 0.0
2018-Feb-13 13:00N 49°29' E 000°07'0 0.0
2018-Feb-13 12:30N 49°29' E 000°07'0 0.0
2018-Feb-13 12:00N 49°29' E 000°07'0 0.0
2018-Feb-13 11:30N 49°29' E 000°07'0 0.0
2018-Feb-13 11:00N 49°29' E 000°07'0 0.0
2018-Feb-13 10:30N 49°29' E 000°07'0 0.0
2018-Feb-13 10:00N 49°29' E 000°07'0 0.0
2018-Feb-13 09:30N 49°29' E 000°07'0 0.0
2018-Feb-13 09:00N 49°29' E 000°07'0 0.0
2018-Feb-13 08:30N 49°29' E 000°07'0 0.0
2018-Feb-13 08:00N 49°29' E 000°07'0 0.0
2018-Feb-13 07:30N 49°29' E 000°07'2 4.5
2018-Feb-13 07:01N 49°30' E 000°03'714.7
2018-Feb-13 06:31N 49°35' W 000°04'713.7
2018-Feb-13 06:00N 49°42' W 000°07'713.2
2018-Feb-13 05:31N 49°48' W 000°11'713.4
2018-Feb-13 05:00N 49°54' W 000°15'713.6
2018-Feb-13 04:30N 50°01' W 000°18'713.7
2018-Feb-13 04:00N 50°07' W 000°22'2713.3
2018-Feb-13 01:57N 50°30' W 000°46'613.1
2018-Feb-13 01:30N 50°34' W 000°51'612.8
2018-Feb-13 01:01N 50°40' W 000°56'612.6
2018-Feb-13 00:31N 50°44' W 001°04'5 9.7
2018-Feb-13 00:01N 50°48' W 001°07'1 1.4
2018-Feb-12 23:31N 50°49' W 001°06'0 0.0
2018-Feb-12 23:01N 50°49' W 001°06'0 0.0
2018-Feb-12 22:31N 50°49' W 001°06'0 0.0
2018-Feb-12 22:01N 50°49' W 001°06'0 0.1
2018-Feb-12 21:30N 50°49' W 001°06'2 4.2
2018-Feb-12 21:01N 50°47' W 001°06'714.9
2018-Feb-12 20:31N 50°41' W 000°57'918.6
2018-Feb-12 20:00N 50°33' W 000°50'2019.8
2018-Feb-12 19:01N 50°16' W 000°36'219.8
2018-Feb-12 18:56N 50°15' W 000°34'1219.3
2018-Feb-12 18:20N 50°05' W 000°25'619.4
2018-Feb-12 18:00N 49°59' W 000°20'1019.4
2018-Feb-12 17:30N 49°50' W 000°14'1019.5
2018-Feb-12 17:00N 49°41' W 000°08'1019.9
2018-Feb-12 16:30N 49°33' W 000°01'611.9
2018-Feb-12 16:00N 49°29' E 000°07'0 0.0
2018-Feb-12 15:30N 49°29' E 000°07'0 0.0
2018-Feb-12 15:00N 49°29' E 000°07'0 0.0
2018-Feb-12 14:31N 49°29' E 000°07'0 0.0
2018-Feb-12 14:01N 49°29' E 000°07'0 0.0
2018-Feb-12 13:30N 49°29' E 000°07'0 0.0
2018-Feb-12 13:01N 49°29' E 000°07'0 0.0
2018-Feb-12 12:30N 49°29' E 000°07'0 0.0
2018-Feb-12 12:00N 49°29' E 000°07'0 0.0
2018-Feb-12 11:30N 49°29' E 000°07'0 0.0
2018-Feb-12 11:00N 49°29' E 000°07'0 0.0
2018-Feb-12 10:30N 49°29' E 000°07'0 0.0
2018-Feb-12 10:00N 49°29' E 000°07'0 0.0
2018-Feb-12 09:30N 49°29' E 000°07'0 0.0
2018-Feb-12 09:00N 49°29' E 000°07'0 0.0
2018-Feb-12 08:31N 49°29' E 000°07'0 0.0
2018-Feb-12 08:00N 49°29' E 000°07'0 0.0
2018-Feb-12 07:31N 49°29' E 000°07'3 6.6
2018-Feb-12 07:01N 49°30' E 000°02'815.2
2018-Feb-12 06:30N 49°37' W 000°04'510.3
2018-Feb-12 06:00N 49°41' W 000°07'5 9.7
2018-Feb-12 05:30N 49°46' W 000°10'5 9.7
2018-Feb-12 05:00N 49°50' W 000°13'510.0
2018-Feb-12 04:30N 49°55' W 000°17'510.0
2018-Feb-12 04:00N 49°59' W 000°20'510.1
2018-Feb-12 03:30N 50°04' W 000°24'1010.5
2018-Feb-12 02:34N 50°13' W 000°30'2213.8
2018-Feb-12 00:57N 50°31' W 000°49'612.8
2018-Feb-12 00:30N 50°37' W 000°53'714.3
2018-Feb-12 00:00N 50°42' W 000°59'612.3
2018-Feb-11 23:30N 50°47' W 001°06'2 3.9
2018-Feb-11 23:01N 50°49' W 001°06'0 0.0
2018-Feb-11 22:30N 50°49' W 001°06'0 0.0
2018-Feb-11 22:01N 50°49' W 001°06'0 0.0
2018-Feb-11 21:31N 50°49' W 001°06'2 3.2
2018-Feb-11 21:01N 50°47' W 001°06'815.4
2018-Feb-11 20:30N 50°42' W 000°58'917.9
2018-Feb-11 20:00N 50°34' W 000°51'1018.0
2018-Feb-11 19:28N 50°25' W 000°44'2018.6
2018-Feb-11 18:24N 50°08' W 000°30'819.1
2018-Feb-11 18:00N 50°01' W 000°24'1019.0
2018-Feb-11 17:30N 49°53' W 000°16'1019.2
2018-Feb-11 17:00N 49°44' W 000°09'1019.6
2018-Feb-11 16:30N 49°36' W 000°02'816.6
2018-Feb-11 16:00N 49°29' E 000°05'1 1.6
2018-Feb-11 15:30N 49°29' E 000°07'0 0.0
2018-Feb-11 15:00N 49°29' E 000°07'0 0.0
2018-Feb-11 14:30N 49°29' E 000°07'0 0.0
2018-Feb-11 14:00N 49°29' E 000°07'0 0.0
2018-Feb-11 13:30N 49°29' E 000°07'0 0.0
2018-Feb-11 13:00N 49°29' E 000°07'0 0.0
2018-Feb-11 12:30N 49°29' E 000°07'0 0.0
2018-Feb-11 12:00N 49°29' E 000°07'0 0.0
2018-Feb-11 11:30N 49°29' E 000°07'0 0.0
2018-Feb-11 11:00N 49°29' E 000°07'0 0.0
2018-Feb-11 10:30N 49°29' E 000°07'0 0.0
2018-Feb-11 10:00N 49°29' E 000°07'0 0.0
2018-Feb-11 09:30N 49°29' E 000°07'0 0.0
2018-Feb-11 09:00N 49°29' E 000°07'0 0.0
2018-Feb-11 08:30N 49°29' E 000°07'0 0.0
2018-Feb-11 08:00N 49°29' E 000°07'0 0.0
2018-Feb-11 07:30N 49°29' E 000°07'2 4.5
2018-Feb-11 07:01N 49°30' E 000°03'714.1
2018-Feb-11 06:30N 49°36' W 000°02'713.4
2018-Feb-11 06:00N 49°42' W 000°07'611.5
2018-Feb-11 05:30N 49°46' W 000°12'510.0
2018-Feb-11 05:00N 49°50' W 000°16'510.0
2018-Feb-11 04:31N 49°55' W 000°20'510.1
2018-Feb-11 04:00N 49°60' W 000°23'510.2
2018-Feb-11 03:31N 50°04' W 000°27'510.2
2018-Feb-11 03:00N 50°08' W 000°31'2613.5
2018-Feb-11 01:07N 50°31' W 000°49'216.3
2018-Feb-11 01:00N 50°33' W 000°50'714.9
2018-Feb-11 00:31N 50°39' W 000°56'713.4
2018-Feb-11 00:00N 50°44' W 001°04'510.0
2018-Feb-10 23:30N 50°49' W 001°06'0 0.7
2018-Feb-10 23:00N 50°49' W 001°06'0 0.0
2018-Feb-10 22:30N 50°49' W 001°06'0 0.0
2018-Feb-10 22:00N 50°49' W 001°06'0 0.0
2018-Feb-10 21:30N 50°49' W 001°06'2 3.1
2018-Feb-10 21:01N 50°47' W 001°06'713.9
2018-Feb-10 20:30N 50°42' W 000°60'1019.0
2018-Feb-10 20:00N 50°33' W 000°54'3119.5
2018-Feb-10 18:24N 50°05' W 000°32'819.8
2018-Feb-10 18:00N 49°58' W 000°25'1019.9
2018-Feb-10 17:30N 49°50' W 000°16'1020.2
2018-Feb-10 17:00N 49°42' W 000°08'1020.6
2018-Feb-10 16:30N 49°33' W 000°01'611.8
2018-Feb-10 16:00N 49°29' E 000°07'0 0.0
2018-Feb-10 15:30N 49°29' E 000°07'0 0.0
2018-Feb-10 15:00N 49°29' E 000°07'0 0.0
2018-Feb-10 14:30N 49°29' E 000°07'0 0.0
2018-Feb-10 14:00N 49°29' E 000°07'0 0.0
2018-Feb-10 13:30N 49°29' E 000°07'0 0.0
2018-Feb-10 13:00N 49°29' E 000°07'0 0.0
2018-Feb-10 12:30N 49°29' E 000°07'0 0.0
2018-Feb-10 12:00N 49°29' E 000°07'0 0.0
2018-Feb-10 11:30N 49°29' E 000°07'0 0.0
2018-Feb-10 11:00N 49°29' E 000°07'0 0.0
2018-Feb-10 10:30N 49°29' E 000°07'0 0.0
2018-Feb-10 10:00N 49°29' E 000°07'0 0.0
2018-Feb-10 09:30N 49°29' E 000°07'0 0.0
2018-Feb-10 09:00N 49°29' E 000°07'0 0.0
2018-Feb-10 08:30N 49°29' E 000°07'0 0.0
2018-Feb-10 08:00N 49°29' E 000°07'0 0.0
2018-Feb-10 07:30N 49°29' E 000°07'2 3.5
2018-Feb-10 07:01N 49°29' E 000°04'815.5
2018-Feb-10 06:31N 49°36' W 000°02'611.5
2018-Feb-10 06:00N 49°41' W 000°06'1 1.2
2018-Feb-10 05:31N 49°41' W 000°07'1 1.2
2018-Feb-10 05:00N 49°41' W 000°08'3 6.7
2018-Feb-10 04:31N 49°44' W 000°11'713.8
2018-Feb-10 04:00N 49°49' W 000°17'714.0
2018-Feb-10 03:30N 49°55' W 000°23'816.8
2018-Feb-10 03:00N 50°03' W 000°28'2916.5
2018-Feb-10 01:15N 50°29' W 000°46'416.2
2018-Feb-10 01:00N 50°33' W 000°49'816.1
2018-Feb-10 00:30N 50°40' W 000°56'612.3
2018-Feb-10 00:01N 50°44' W 001°03'510.3
2018-Feb-09 23:31N 50°49' W 001°06'0 0.8
2018-Feb-09 23:00N 50°49' W 001°06'0 0.0
2018-Feb-09 22:46N 50°49' W 001°06'0 0.0
2018-Feb-09 22:01N 50°49' W 001°06'0 0.0
2018-Feb-09 21:31N 50°49' W 001°06'0 0.0
2018-Feb-09 21:00N 50°49' W 001°06'0 0.0
2018-Feb-09 20:30N 50°49' W 001°06'0 0.0
2018-Feb-09 20:01N 50°49' W 001°06'0 0.0
2018-Feb-09 19:30N 50°49' W 001°06'0 0.0
2018-Feb-09 18:30N 50°49' W 001°06'8 5.2
2018-Feb-09 17:01N 50°42' W 000°58'714.3
2018-Feb-09 16:30N 50°37' W 000°51'3 2.1
2018-Feb-09 15:00N 50°39' W 000°55'510.7
2018-Feb-09 14:30N 50°43' W 001°00'510.5
2018-Feb-09 14:00N 50°47' W 001°06'2 3.7
2018-Feb-09 13:30N 50°49' W 001°06'0 0.0
2018-Feb-09 13:00N 50°49' W 001°06'0 0.0
2018-Feb-09 12:30N 50°49' W 001°06'0 0.0
2018-Feb-09 12:00N 50°49' W 001°06'0 0.0
2018-Feb-09 11:30N 50°49' W 001°06'0 0.0
2018-Feb-09 10:30N 50°49' W 001°06'0 0.0
2018-Feb-09 09:30N 50°49' W 001°06'0 0.0
2018-Feb-09 09:00N 50°49' W 001°06'0 0.0
2018-Feb-09 08:00N 50°49' W 001°06'0 0.0
2018-Feb-09 07:30N 50°49' W 001°06'0 0.8
2018-Feb-09 07:00N 50°49' W 001°06'1312.9
2018-Feb-09 06:00N 50°38' W 000°55'  
Track history (hours):
 
Tides and Currents Weather Stations Pressure Air Temp Water Temp Dewpoint Dewpoint Depression Visibility Wind Speed Wind Dir Waves Ship Positions

Etretat

Last reported at 2018-Feb-19 04:00 UTC. Time now 2018-Feb-19 04:13 UTC.
Position N 49°50' W 000°15'.

Length 187 m; draft 6 m.

Type: Ship. MMSI: 228022900.

Date/timePositionNaut miles runAvg speedWind from/ knotsBaromVisibWave heightAir tempDewpointWater temp
2018-Feb-19 04:00N 49°50' W 000°15'4 7.7
2018-Feb-19 03:30N 49°53' W 000°18'815.1
2018-Feb-19 03:00N 49°60' W 000°23'3717.2
2018-Feb-19 00:51N 50°33' W 000°50'515.9
2018-Feb-19 00:31N 50°38' W 000°54'714.9
2018-Feb-19 00:00N 50°43' W 001°01'510.7
2018-Feb-18 23:30N 50°48' W 001°07'1 2.5
2018-Feb-18 23:00N 50°49' W 001°06'0 0.0
2018-Feb-18 22:30N 50°49' W 001°06'0 0.0
2018-Feb-18 22:01N 50°49' W 001°06'0 0.0
2018-Feb-18 21:30N 50°49' W 001°06'1 1.5
2018-Feb-18 21:00N 50°48' W 001°07'611.6
2018-Feb-18 20:31N 50°44' W 001°02'918.5
2018-Feb-18 20:01N 50°36' W 000°53'1119.7
2018-Feb-18 19:26N 50°26' W 000°45'1420.2
2018-Feb-18 18:44N 50°14' W 000°33'520.2
2018-Feb-18 18:31N 50°10' W 000°30'1019.9
2018-Feb-18 18:01N 50°01' W 000°24'1020.5
2018-Feb-18 17:31N 49°52' W 000°17'1020.8
2018-Feb-18 17:01N 49°43' W 000°09'1020.8
2018-Feb-18 16:30N 49°33' W 000°01'713.7
2018-Feb-18 16:00N 49°29' E 000°07'0 0.0
2018-Feb-18 15:30N 49°29' E 000°07'0 0.0
2018-Feb-18 15:00N 49°29' E 000°07'0 0.0
2018-Feb-18 14:30N 49°29' E 000°07'0 0.0
2018-Feb-18 14:00N 49°29' E 000°07'0 0.0
2018-Feb-18 13:30N 49°29' E 000°07'0 0.0
2018-Feb-18 13:00N 49°29' E 000°07'0 0.0
2018-Feb-18 12:30N 49°29' E 000°07'0 0.0
2018-Feb-18 12:00N 49°29' E 000°07'0 0.0
2018-Feb-18 11:30N 49°29' E 000°07'0 0.0
2018-Feb-18 11:00N 49°29' E 000°07'0 0.0
2018-Feb-18 10:30N 49°29' E 000°07'0 0.0
2018-Feb-18 10:00N 49°29' E 000°07'0 0.0
2018-Feb-18 09:30N 49°29' E 000°07'0 0.0
2018-Feb-18 09:00N 49°29' E 000°07'0 0.0
2018-Feb-18 08:30N 49°29' E 000°07'0 0.0
2018-Feb-18 08:00N 49°29' E 000°07'0 0.0
2018-Feb-18 07:30N 49°29' E 000°07'2 4.0
2018-Feb-18 07:01N 49°29' E 000°04'815.1
2018-Feb-18 06:31N 49°36' W 000°02'3 6.6
2018-Feb-18 06:00N 49°39' W 000°04'0 0.2
2018-Feb-18 05:30N 49°39' W 000°04'0 0.6
2018-Feb-18 05:00N 49°39' W 000°04'714.3
2018-Feb-18 04:30N 49°45' W 000°10'815.3
2018-Feb-18 04:00N 49°52' W 000°16'815.1
2018-Feb-18 03:31N 49°58' W 000°22'815.0
2018-Feb-18 03:00N 50°05' W 000°28'815.3
2018-Feb-18 02:30N 50°12' W 000°33'1015.4
2018-Feb-18 01:50N 50°21' W 000°40'815.9
2018-Feb-18 01:20N 50°28' W 000°47'515.3
2018-Feb-18 01:01N 50°32' W 000°51'815.3
2018-Feb-18 00:30N 50°37' W 000°59'713.1
2018-Feb-18 00:00N 50°44' W 001°03'510.9
2018-Feb-17 23:31N 50°48' W 001°07'1 1.3
2018-Feb-17 23:01N 50°49' W 001°06'0 0.0
2018-Feb-17 22:31N 50°49' W 001°06'0 0.0
2018-Feb-17 22:01N 50°49' W 001°06'0 0.2
2018-Feb-17 21:31N 50°49' W 001°06'3 6.0
2018-Feb-17 21:01N 50°46' W 001°05'816.4
2018-Feb-17 20:31N 50°40' W 000°56'918.3
2018-Feb-17 20:00N 50°32' W 000°49'1119.0
2018-Feb-17 19:27N 50°23' W 000°40'919.2
2018-Feb-17 18:59N 50°15' W 000°33'919.4
2018-Feb-17 18:31N 50°07' W 000°28'1019.6
2018-Feb-17 18:01N 49°58' W 000°22'1020.3
2018-Feb-17 17:31N 49°49' W 000°15'1020.6
2018-Feb-17 17:01N 49°40' W 000°07'1020.2
2018-Feb-17 16:31N 49°31' E 000°01'4 8.4
2018-Feb-17 16:00N 49°29' E 000°07'0 0.0
2018-Feb-17 15:30N 49°29' E 000°07'0 0.0
2018-Feb-17 15:00N 49°29' E 000°07'0 0.0
2018-Feb-17 14:30N 49°29' E 000°07'0 0.0
2018-Feb-17 14:00N 49°29' E 000°07'0 0.0
2018-Feb-17 13:30N 49°29' E 000°07'0 0.0
2018-Feb-17 13:00N 49°29' E 000°07'0 0.0
2018-Feb-17 12:30N 49°29' E 000°07'0 0.0
2018-Feb-17 12:00N 49°29' E 000°07'0 0.0
2018-Feb-17 11:30N 49°29' E 000°07'0 0.0
2018-Feb-17 11:00N 49°29' E 000°07'0 0.0
2018-Feb-17 10:30N 49°29' E 000°07'0 0.0
2018-Feb-17 10:00N 49°29' E 000°07'0 0.0
2018-Feb-17 09:30N 49°29' E 000°07'0 0.0
2018-Feb-17 09:00N 49°29' E 000°07'0 0.0
2018-Feb-17 08:30N 49°29' E 000°07'0 0.0
2018-Feb-17 08:00N 49°29' E 000°07'0 0.0
2018-Feb-17 07:30N 49°29' E 000°07'2 3.2
2018-Feb-17 07:00N 49°29' E 000°04'816.5
2018-Feb-17 06:30N 49°36' W 000°04'5 9.1
2018-Feb-17 06:00N 49°40' W 000°07'1 1.2
2018-Feb-17 05:30N 49°40' W 000°06'0 0.7
2018-Feb-17 05:00N 49°41' W 000°06'611.9
2018-Feb-17 04:30N 49°46' W 000°10'815.3
2018-Feb-17 04:00N 49°52' W 000°16'815.1
2018-Feb-17 03:30N 49°59' W 000°22'714.8
2018-Feb-17 03:00N 50°06' W 000°27'714.1
2018-Feb-17 02:30N 50°10' W 000°36'2114.3
2018-Feb-17 01:02N 50°30' W 000°48'115.9
2018-Feb-17 00:59N 50°30' W 000°48'715.3
2018-Feb-17 00:30N 50°37' W 000°53'815.7
2018-Feb-17 00:01N 50°43' W 001°01'612.2
2018-Feb-16 23:30N 50°48' W 001°07'1 2.2
2018-Feb-16 23:00N 50°49' W 001°06'0 0.0
2018-Feb-16 22:30N 50°49' W 001°06'0 0.0
2018-Feb-16 22:01N 50°49' W 001°06'0 0.0
2018-Feb-16 21:30N 50°49' W 001°06'0 0.0
2018-Feb-16 21:00N 50°49' W 001°06'0 0.0
2018-Feb-16 20:30N 50°49' W 001°06'0 0.0
2018-Feb-16 20:00N 50°49' W 001°06'0 0.0
2018-Feb-16 19:31N 50°49' W 001°06'0 0.0
2018-Feb-16 19:00N 50°49' W 001°06'0 0.0
2018-Feb-16 18:30N 50°49' W 001°06'0 0.0
2018-Feb-16 18:00N 50°49' W 001°06'0 0.0
2018-Feb-16 17:30N 50°49' W 001°06'0 0.0
2018-Feb-16 17:00N 50°49' W 001°06'0 0.0
2018-Feb-16 16:30N 50°49' W 001°06'0 0.0
2018-Feb-16 16:00N 50°49' W 001°06'0 0.0
2018-Feb-16 15:30N 50°49' W 001°06'0 0.0
2018-Feb-16 15:00N 50°49' W 001°06'0 0.0
2018-Feb-16 14:30N 50°49' W 001°06'0 0.0
2018-Feb-16 14:00N 50°49' W 001°06'0 0.0
2018-Feb-16 13:30N 50°49' W 001°06'0 0.0
2018-Feb-16 13:00N 50°49' W 001°06'0 0.0
2018-Feb-16 12:30N 50°49' W 001°06'0 0.0
2018-Feb-16 12:01N 50°49' W 001°06'0 0.0
2018-Feb-16 11:30N 50°49' W 001°06'0 0.0
2018-Feb-16 11:00N 50°49' W 001°06'0 0.0
2018-Feb-16 10:30N 50°49' W 001°06'0 0.0
2018-Feb-16 10:00N 50°49' W 001°06'0 0.0
2018-Feb-16 09:30N 50°49' W 001°06'0 0.0
2018-Feb-16 09:00N 50°49' W 001°06'0 0.0
2018-Feb-16 08:30N 50°49' W 001°06'0 0.0
2018-Feb-16 08:00N 50°49' W 001°06'0 0.0
2018-Feb-16 07:30N 50°49' W 001°06'1 1.1
2018-Feb-16 07:01N 50°49' W 001°07'612.4
2018-Feb-16 06:31N 50°43' W 001°01'815.3
2018-Feb-16 06:01N 50°36' W 000°57'815.3
2018-Feb-16 05:30N 50°29' W 000°52'1815.8
2018-Feb-16 04:23N 50°15' W 000°35'716.9
2018-Feb-16 03:58N 50°10' W 000°28'716.0
2018-Feb-16 03:31N 50°03' W 000°22'815.5
2018-Feb-16 03:00N 49°56' W 000°19'815.5
2018-Feb-16 02:31N 49°49' W 000°14'815.0
2018-Feb-16 02:00N 49°42' W 000°10'0 0.5
2018-Feb-16 01:30N 49°42' W 000°10'0 0.6
2018-Feb-16 01:00N 49°42' W 000°09'0 0.6
2018-Feb-16 00:30N 49°42' W 000°09'0 0.7
2018-Feb-16 00:00N 49°43' W 000°10'0 0.9
2018-Feb-15 23:30N 49°43' W 000°10'1 1.4
2018-Feb-15 23:00N 49°42' W 000°11'3 5.8
2018-Feb-15 22:30N 49°40' W 000°09'612.9
2018-Feb-15 22:00N 49°35' W 000°03'713.4
2018-Feb-15 21:31N 49°30' E 000°03'2 4.4
2018-Feb-15 21:00N 49°29' E 000°07'0 0.0
2018-Feb-15 20:30N 49°29' E 000°07'0 0.0
2018-Feb-15 20:00N 49°29' E 000°07'0 0.0
2018-Feb-15 19:30N 49°29' E 000°07'0 0.0
2018-Feb-15 19:00N 49°29' E 000°07'0 0.0
2018-Feb-15 18:30N 49°29' E 000°07'0 0.0
2018-Feb-15 18:00N 49°29' E 000°07'0 0.0
2018-Feb-15 17:30N 49°29' E 000°07'0 0.0
2018-Feb-15 17:00N 49°29' E 000°07'0 0.0
2018-Feb-15 16:30N 49°29' E 000°07'0 0.0
2018-Feb-15 16:00N 49°29' E 000°07'0 0.0
2018-Feb-15 15:30N 49°29' E 000°07'0 0.0
2018-Feb-15 15:00N 49°29' E 000°07'0 0.0
2018-Feb-15 14:30N 49°29' E 000°07'0 0.0
2018-Feb-15 14:00N 49°29' E 000°07'0 0.0
2018-Feb-15 13:31N 49°29' E 000°07'0 0.0
2018-Feb-15 13:00N 49°29' E 000°07'0 0.0
2018-Feb-15 12:30N 49°29' E 000°07'0 0.0
2018-Feb-15 12:00N 49°29' E 000°07'0 0.0
2018-Feb-15 11:30N 49°29' E 000°07'0 0.0
2018-Feb-15 11:00N 49°29' E 000°07'0 0.0
2018-Feb-15 10:30N 49°29' E 000°07'0 0.0
2018-Feb-15 10:00N 49°29' E 000°07'0 0.0
2018-Feb-15 09:30N 49°29' E 000°07'0 0.0
2018-Feb-15 09:00N 49°29' E 000°07'0 0.0
2018-Feb-15 08:30N 49°29' E 000°07'0 0.0
2018-Feb-15 08:00N 49°29' E 000°07'0 0.0
2018-Feb-15 07:30N 49°29' E 000°07'3 7.0
2018-Feb-15 07:00N 49°30' E 000°02'612.7
2018-Feb-15 06:31N 49°36' W 000°02'612.2
2018-Feb-15 06:00N 49°40' W 000°08'612.8
2018-Feb-15 05:30N 49°47' W 000°11'713.1
2018-Feb-15 05:00N 49°52' W 000°17'713.2
2018-Feb-15 04:30N 49°58' W 000°22'713.7
2018-Feb-15 04:00N 50°04' W 000°27'611.2
2018-Feb-15 03:30N 50°07' W 000°34'1913.4
2018-Feb-15 02:06N 50°25' W 000°41'413.4
2018-Feb-15 01:46N 50°29' W 000°46'413.5
2018-Feb-15 01:30N 50°32' W 000°49'713.4
2018-Feb-15 01:00N 50°37' W 000°54'713.4
2018-Feb-15 00:30N 50°43' W 001°00'611.7
2018-Feb-15 00:01N 50°47' W 001°06'2 3.1
2018-Feb-14 23:31N 50°49' W 001°06'0 0.0
2018-Feb-14 23:01N 50°49' W 001°06'0 0.0
2018-Feb-14 22:31N 50°49' W 001°06'0 0.0
2018-Feb-14 22:01N 50°49' W 001°06'0 0.2
2018-Feb-14 21:30N 50°49' W 001°06'4 7.4
2018-Feb-14 21:01N 50°45' W 001°05'714.4
2018-Feb-14 20:31N 50°40' W 000°57'2819.2
2018-Feb-14 19:01N 50°15' W 000°35'219.0
2018-Feb-14 18:55N 50°14' W 000°34'918.9
2018-Feb-14 18:27N 50°06' W 000°26'919.1
2018-Feb-14 18:00N 49°58' W 000°21'1019.3
2018-Feb-14 17:30N 49°50' W 000°14'1019.5
2018-Feb-14 17:00N 49°41' W 000°07'1020.0
2018-Feb-14 16:30N 49°32' W 000°00'511.0
2018-Feb-14 16:01N 49°29' E 000°07'0 0.0
2018-Feb-14 15:30N 49°29' E 000°07'0 0.0
2018-Feb-14 15:00N 49°29' E 000°07'0 0.0
2018-Feb-14 14:30N 49°29' E 000°07'0 0.0
2018-Feb-14 14:00N 49°29' E 000°07'0 0.0
2018-Feb-14 13:30N 49°29' E 000°07'0 0.0
2018-Feb-14 13:00N 49°29' E 000°07'0 0.0
2018-Feb-14 12:30N 49°29' E 000°07'0 0.0
2018-Feb-14 12:00N 49°29' E 000°07'0 0.0
2018-Feb-14 11:30N 49°29' E 000°07'0 0.0
2018-Feb-14 11:00N 49°29' E 000°07'0 0.0
2018-Feb-14 10:30N 49°29' E 000°07'0 0.0
2018-Feb-14 10:00N 49°29' E 000°07'0 0.0
2018-Feb-14 09:30N 49°29' E 000°07'0 0.0
2018-Feb-14 09:00N 49°29' E 000°07'0 0.0
2018-Feb-14 08:30N 49°29' E 000°07'0 0.0
2018-Feb-14 08:00N 49°29' E 000°07'0 0.0
2018-Feb-14 07:30N 49°29' E 000°07'2 4.4
2018-Feb-14 07:00N 49°30' E 000°03'714.0
2018-Feb-14 06:31N 49°35' W 000°03'612.6
2018-Feb-14 06:01N 49°41' W 000°07'612.8
2018-Feb-14 05:31N 49°47' W 000°12'713.1
2018-Feb-14 05:01N 49°52' W 000°16'713.3
2018-Feb-14 04:31N 49°58' W 000°22'713.2
2018-Feb-14 04:00N 50°04' W 000°27'2212.8
2018-Feb-14 02:19N 50°22' W 000°46'413.2
2018-Feb-14 02:00N 50°26' W 000°48'713.5
2018-Feb-14 01:30N 50°32' W 000°51'714.2
2018-Feb-14 01:00N 50°39' W 000°55'612.7
2018-Feb-14 00:30N 50°43' W 001°02'611.0
2018-Feb-14 00:00N 50°48' W 001°07'1 1.9
2018-Feb-13 23:30N 50°49' W 001°06'0 0.0
2018-Feb-13 23:00N 50°49' W 001°06'0 0.0
2018-Feb-13 22:30N 50°49' W 001°06'0 0.0
2018-Feb-13 22:00N 50°49' W 001°06'0 0.2
2018-Feb-13 21:31N 50°49' W 001°06'4 8.5
2018-Feb-13 21:01N 50°45' W 001°05'918.7
2018-Feb-13 20:31N 50°38' W 000°54'1017.4
2018-Feb-13 19:55N 50°29' W 000°46'2617.9
2018-Feb-13 18:29N 50°06' W 000°28'918.0
2018-Feb-13 18:00N 49°58' W 000°22'918.7
2018-Feb-13 17:30N 49°50' W 000°15'918.8
2018-Feb-13 17:01N 49°42' W 000°07'1019.2
2018-Feb-13 16:31N 49°33' W 000°01'713.4
2018-Feb-13 16:00N 49°29' E 000°07'0 0.0
2018-Feb-13 15:30N 49°29' E 000°07'0 0.0
2018-Feb-13 15:00N 49°29' E 000°07'0 0.0
2018-Feb-13 14:30N 49°29' E 000°07'0 0.0
2018-Feb-13 14:00N 49°29' E 000°07'0 0.0
2018-Feb-13 13:30N 49°29' E 000°07'0 0.0
2018-Feb-13 13:00N 49°29' E 000°07'0 0.0
2018-Feb-13 12:30N 49°29' E 000°07'0 0.0
2018-Feb-13 12:00N 49°29' E 000°07'0 0.0
2018-Feb-13 11:30N 49°29' E 000°07'0 0.0
2018-Feb-13 11:00N 49°29' E 000°07'0 0.0
2018-Feb-13 10:30N 49°29' E 000°07'0 0.0
2018-Feb-13 10:00N 49°29' E 000°07'0 0.0
2018-Feb-13 09:30N 49°29' E 000°07'0 0.0
2018-Feb-13 09:00N 49°29' E 000°07'0 0.0
2018-Feb-13 08:30N 49°29' E 000°07'0 0.0
2018-Feb-13 08:00N 49°29' E 000°07'0 0.0
2018-Feb-13 07:30N 49°29' E 000°07'2 4.5
2018-Feb-13 07:01N 49°30' E 000°03'714.7
2018-Feb-13 06:31N 49°35' W 000°04'713.7
2018-Feb-13 06:00N 49°42' W 000°07'713.2
2018-Feb-13 05:31N 49°48' W 000°11'713.4
2018-Feb-13 05:00N 49°54' W 000°15'713.6
2018-Feb-13 04:30N 50°01' W 000°18'713.7
2018-Feb-13 04:00N 50°07' W 000°22'2713.3
2018-Feb-13 01:57N 50°30' W 000°46'613.1
2018-Feb-13 01:30N 50°34' W 000°51'612.8
2018-Feb-13 01:01N 50°40' W 000°56'612.6
2018-Feb-13 00:31N 50°44' W 001°04'5 9.7
2018-Feb-13 00:01N 50°48' W 001°07'1 1.4
2018-Feb-12 23:31N 50°49' W 001°06'0 0.0
2018-Feb-12 23:01N 50°49' W 001°06'0 0.0
2018-Feb-12 22:31N 50°49' W 001°06'0 0.0
2018-Feb-12 22:01N 50°49' W 001°06'0 0.1
2018-Feb-12 21:30N 50°49' W 001°06'2 4.2
2018-Feb-12 21:01N 50°47' W 001°06'714.9
2018-Feb-12 20:31N 50°41' W 000°57'918.6
2018-Feb-12 20:00N 50°33' W 000°50'2019.8
2018-Feb-12 19:01N 50°16' W 000°36'219.8
2018-Feb-12 18:56N 50°15' W 000°34'1219.3
2018-Feb-12 18:20N 50°05' W 000°25'619.4
2018-Feb-12 18:00N 49°59' W 000°20'1019.4
2018-Feb-12 17:30N 49°50' W 000°14'1019.5
2018-Feb-12 17:00N 49°41' W 000°08'1019.9
2018-Feb-12 16:30N 49°33' W 000°01'611.9
2018-Feb-12 16:00N 49°29' E 000°07'0 0.0
2018-Feb-12 15:30N 49°29' E 000°07'0 0.0
2018-Feb-12 15:00N 49°29' E 000°07'0 0.0
2018-Feb-12 14:31N 49°29' E 000°07'0 0.0
2018-Feb-12 14:01N 49°29' E 000°07'0 0.0
2018-Feb-12 13:30N 49°29' E 000°07'0 0.0
2018-Feb-12 13:01N 49°29' E 000°07'0 0.0
2018-Feb-12 12:30N 49°29' E 000°07'0 0.0
2018-Feb-12 12:00N 49°29' E 000°07'0 0.0
2018-Feb-12 11:30N 49°29' E 000°07'0 0.0
2018-Feb-12 11:00N 49°29' E 000°07'0 0.0
2018-Feb-12 10:30N 49°29' E 000°07'0 0.0
2018-Feb-12 10:00N 49°29' E 000°07'0 0.0
2018-Feb-12 09:30N 49°29' E 000°07'0 0.0
2018-Feb-12 09:00N 49°29' E 000°07'0 0.0
2018-Feb-12 08:31N 49°29' E 000°07'0 0.0
2018-Feb-12 08:00N 49°29' E 000°07'0 0.0
2018-Feb-12 07:31N 49°29' E 000°07'3 6.6
2018-Feb-12 07:01N 49°30' E 000°02'815.2
2018-Feb-12 06:30N 49°37' W 000°04'510.3
2018-Feb-12 06:00N 49°41' W 000°07'5 9.7
2018-Feb-12 05:30N 49°46' W 000°10'5 9.7
2018-Feb-12 05:00N 49°50' W 000°13'510.0
2018-Feb-12 04:30N 49°55' W 000°17'510.0
2018-Feb-12 04:00N 49°59' W 000°20'510.1
2018-Feb-12 03:30N 50°04' W 000°24'1010.5
2018-Feb-12 02:34N 50°13' W 000°30'2213.8
2018-Feb-12 00:57N 50°31' W 000°49'612.8
2018-Feb-12 00:30N 50°37' W 000°53'714.3
2018-Feb-12 00:00N 50°42' W 000°59'612.3
2018-Feb-11 23:30N 50°47' W 001°06'2 3.9
2018-Feb-11 23:01N 50°49' W 001°06'0 0.0
2018-Feb-11 22:30N 50°49' W 001°06'0 0.0
2018-Feb-11 22:01N 50°49' W 001°06'0 0.0
2018-Feb-11 21:31N 50°49' W 001°06'2 3.2
2018-Feb-11 21:01N 50°47' W 001°06'815.4
2018-Feb-11 20:30N 50°42' W 000°58'917.9
2018-Feb-11 20:00N 50°34' W 000°51'1018.0
2018-Feb-11 19:28N 50°25' W 000°44'2018.6
2018-Feb-11 18:24N 50°08' W 000°30'819.1
2018-Feb-11 18:00N 50°01' W 000°24'1019.0
2018-Feb-11 17:30N 49°53' W 000°16'1019.2
2018-Feb-11 17:00N 49°44' W 000°09'1019.6
2018-Feb-11 16:30N 49°36' W 000°02'816.6
2018-Feb-11 16:00N 49°29' E 000°05'1 1.6
2018-Feb-11 15:30N 49°29' E 000°07'0 0.0
2018-Feb-11 15:00N 49°29' E 000°07'0 0.0
2018-Feb-11 14:30N 49°29' E 000°07'0 0.0
2018-Feb-11 14:00N 49°29' E 000°07'0 0.0
2018-Feb-11 13:30N 49°29' E 000°07'0 0.0
2018-Feb-11 13:00N 49°29' E 000°07'0 0.0
2018-Feb-11 12:30N 49°29' E 000°07'0 0.0
2018-Feb-11 12:00N 49°29' E 000°07'0 0.0
2018-Feb-11 11:30N 49°29' E 000°07'0 0.0
2018-Feb-11 11:00N 49°29' E 000°07'0 0.0
2018-Feb-11 10:30N 49°29' E 000°07'0 0.0
2018-Feb-11 10:00N 49°29' E 000°07'0 0.0
2018-Feb-11 09:30N 49°29' E 000°07'0 0.0
2018-Feb-11 09:00N 49°29' E 000°07'0 0.0
2018-Feb-11 08:30N 49°29' E 000°07'0 0.0
2018-Feb-11 08:00N 49°29' E 000°07'0 0.0
2018-Feb-11 07:30N 49°29' E 000°07'2 4.5
2018-Feb-11 07:01N 49°30' E 000°03'714.1
2018-Feb-11 06:30N 49°36' W 000°02'713.4
2018-Feb-11 06:00N 49°42' W 000°07'611.5
2018-Feb-11 05:30N 49°46' W 000°12'510.0
2018-Feb-11 05:00N 49°50' W 000°16'510.0
2018-Feb-11 04:31N 49°55' W 000°20'510.1
2018-Feb-11 04:00N 49°60' W 000°23'510.2
2018-Feb-11 03:31N 50°04' W 000°27'510.2
2018-Feb-11 03:00N 50°08' W 000°31'2613.5
2018-Feb-11 01:07N 50°31' W 000°49'216.3
2018-Feb-11 01:00N 50°33' W 000°50'714.9
2018-Feb-11 00:31N 50°39' W 000°56'713.4
2018-Feb-11 00:00N 50°44' W 001°04'510.0
2018-Feb-10 23:30N 50°49' W 001°06'0 0.7
2018-Feb-10 23:00N 50°49' W 001°06'0 0.0
2018-Feb-10 22:30N 50°49' W 001°06'0 0.0
2018-Feb-10 22:00N 50°49' W 001°06'0 0.0
2018-Feb-10 21:30N 50°49' W 001°06'2 3.1
2018-Feb-10 21:01N 50°47' W 001°06'713.9
2018-Feb-10 20:30N 50°42' W 000°60'1019.0
2018-Feb-10 20:00N 50°33' W 000°54'3119.5
2018-Feb-10 18:24N 50°05' W 000°32'819.8
2018-Feb-10 18:00N 49°58' W 000°25'1019.9
2018-Feb-10 17:30N 49°50' W 000°16'1020.2
2018-Feb-10 17:00N 49°42' W 000°08'1020.6
2018-Feb-10 16:30N 49°33' W 000°01'611.8
2018-Feb-10 16:00N 49°29' E 000°07'0 0.0
2018-Feb-10 15:30N 49°29' E 000°07'0 0.0
2018-Feb-10 15:00N 49°29' E 000°07'0 0.0
2018-Feb-10 14:30N 49°29' E 000°07'0 0.0
2018-Feb-10 14:00N 49°29' E 000°07'0 0.0
2018-Feb-10 13:30N 49°29' E 000°07'0 0.0
2018-Feb-10 13:00N 49°29' E 000°07'0 0.0
2018-Feb-10 12:30N 49°29' E 000°07'0 0.0
2018-Feb-10 12:00N 49°29' E 000°07'0 0.0
2018-Feb-10 11:30N 49°29' E 000°07'0 0.0
2018-Feb-10 11:00N 49°29' E 000°07'0 0.0
2018-Feb-10 10:30N 49°29' E 000°07'0 0.0
2018-Feb-10 10:00N 49°29' E 000°07'0 0.0
2018-Feb-10 09:30N 49°29' E 000°07'0 0.0
2018-Feb-10 09:00N 49°29' E 000°07'0 0.0
2018-Feb-10 08:30N 49°29' E 000°07'0 0.0
2018-Feb-10 08:00N 49°29' E 000°07'0 0.0
2018-Feb-10 07:30N 49°29' E 000°07'2 3.5
2018-Feb-10 07:01N 49°29' E 000°04'815.5
2018-Feb-10 06:31N 49°36' W 000°02'611.5
2018-Feb-10 06:00N 49°41' W 000°06'1 1.2
2018-Feb-10 05:31N 49°41' W 000°07'1 1.2
2018-Feb-10 05:00N 49°41' W 000°08'3 6.7
2018-Feb-10 04:31N 49°44' W 000°11'713.8
2018-Feb-10 04:00N 49°49' W 000°17'714.0
2018-Feb-10 03:30N 49°55' W 000°23'816.8
2018-Feb-10 03:00N 50°03' W 000°28'2916.5
2018-Feb-10 01:15N 50°29' W 000°46'416.2
2018-Feb-10 01:00N 50°33' W 000°49'816.1
2018-Feb-10 00:30N 50°40' W 000°56'612.3
2018-Feb-10 00:01N 50°44' W 001°03'510.3
2018-Feb-09 23:31N 50°49' W 001°06'0 0.8
2018-Feb-09 23:00N 50°49' W 001°06'0 0.0
2018-Feb-09 22:46N 50°49' W 001°06'0 0.0
2018-Feb-09 22:01N 50°49' W 001°06'0 0.0
2018-Feb-09 21:31N 50°49' W 001°06'0 0.0
2018-Feb-09 21:00N 50°49' W 001°06'0 0.0
2018-Feb-09 20:30N 50°49' W 001°06'0 0.0
2018-Feb-09 20:01N 50°49' W 001°06'0 0.0
2018-Feb-09 19:30N 50°49' W 001°06'0 0.0
2018-Feb-09 18:30N 50°49' W 001°06'8 5.2
2018-Feb-09 17:01N 50°42' W 000°58'714.3
2018-Feb-09 16:30N 50°37' W 000°51'3 2.1
2018-Feb-09 15:00N 50°39' W 000°55'510.7
2018-Feb-09 14:30N 50°43' W 001°00'510.5
2018-Feb-09 14:00N 50°47' W 001°06'2 3.7
2018-Feb-09 13:30N 50°49' W 001°06'0 0.0
2018-Feb-09 13:00N 50°49' W 001°06'0 0.0
2018-Feb-09 12:30N 50°49' W 001°06'0 0.0
2018-Feb-09 12:00N 50°49' W 001°06'0 0.0
2018-Feb-09 11:30N 50°49' W 001°06'0 0.0
2018-Feb-09 10:30N 50°49' W 001°06'0 0.0
2018-Feb-09 09:30N 50°49' W 001°06'0 0.0
2018-Feb-09 09:00N 50°49' W 001°06'0 0.0
2018-Feb-09 08:00N 50°49' W 001°06'0 0.0
2018-Feb-09 07:30N 50°49' W 001°06'0 0.8
2018-Feb-09 07:00N 50°49' W 001°06'1312.9
2018-Feb-09 06:00N 50°38' W 000°55'  

Dump ship's entire track history